Time;durP1;ratioP1;P1;durP2;ratioP2;P2;SDS_P1;SDS_P2;PMS_P1;PMS_P2;Temp;Humidity;BMP_temperature;BMP_pressure;BME280_temperature;BME280_humidity;BME280_pressure;Samples;Min_cycle;Max_cycle;Signal;HPM_P1;HPM_P2
2022/04/19 00:00:46;;;;;;;69.28;49.05;;;;;;;3.10;100.00;100828.34;4923715;29;20063;-90
2022/04/19 00:03:15;;;;;;;84.32;53.42;;;;;;;2.86;100.00;100827.19;4920851;29;20056;-90
2022/04/19 00:05:42;;;;;;;66.63;46.17;;;;;;;3.20;100.00;100826.44;4924252;29;20059;-89
2022/04/19 00:08:11;;;;;;;91.32;57.85;;;;;;;3.18;100.00;100831.84;4922277;29;20048;-89
2022/04/19 00:10:43;;;;;;;57.65;41.88;;;;;;;2.97;100.00;100831.38;4924030;29;20137;-89
2022/04/19 00:13:13;;;;;;;59.30;45.05;;;;;;;3.29;100.00;100829.94;4924687;29;20052;-89
2022/04/19 00:15:44;;;;;;;55.88;45.22;;;;;;;3.32;100.00;100827.81;4927567;29;20051;-89
2022/04/19 00:18:12;;;;;;;63.05;45.03;;;;;;;3.45;100.00;100819.53;4922879;29;20048;-89
2022/04/19 00:20:42;;;;;;;58.00;45.53;;;;;;;3.17;100.00;100824.13;4923872;29;20564;-89
2022/04/19 00:23:15;;;;;;;60.47;46.92;;;;;;;3.43;100.00;100822.31;4923844;29;20505;-89
2022/04/19 00:25:44;;;;;;;59.63;45.92;;;;;;;3.46;100.00;100820.34;4928174;29;20048;-88
2022/04/19 00:28:11;;;;;;;55.13;43.17;;;;;;;3.51;100.00;100816.28;4923523;29;20048;-89
2022/04/19 00:30:42;;;;;;;50.63;44.85;;;;;;;3.28;100.00;100818.63;4928985;29;20142;-89
2022/04/19 00:33:10;;;;;;;55.47;40.85;;;;;;;3.65;100.00;100817.47;4932977;29;20134;-89
2022/04/19 00:35:38;;;;;;;53.30;43.00;;;;;;;3.65;100.00;100815.66;4930624;29;20059;-89
2022/04/19 00:38:06;;;;;;;51.33;45.83;;;;;;;3.62;100.00;100809.91;4927395;29;20047;-90
2022/04/19 00:40:33;;;;;;;44.28;39.55;;;;;;;3.68;100.00;100804.84;4925777;29;20047;-89
2022/04/19 00:43:02;;;;;;;41.88;38.22;;;;;;;3.81;100.00;100803.56;4926510;29;20054;-90
2022/04/19 00:45:34;;;;;;;40.03;36.53;;;;;;;3.59;100.00;100802.34;4929435;29;20056;-89
2022/04/19 00:48:07;;;;;;;40.65;37.28;;;;;;;3.68;100.00;100801.38;4923819;29;20056;-89
2022/04/19 00:50:34;;;;;;;37.50;34.40;;;;;;;3.50;100.00;100798.84;4925068;29;20430;-89
2022/04/19 00:53:08;;;;;;;38.00;34.80;;;;;;;3.55;100.00;100801.84;4929137;29;20052;-89
2022/04/19 00:55:36;;;;;;;41.08;37.63;;;;;;;3.24;100.00;100801.53;4930653;29;20047;-89
2022/04/19 00:58:06;;;;;;;37.10;34.00;;;;;;;3.14;100.00;100803.44;4925028;29;20067;-89
2022/04/19 01:00:33;;;;;;;36.30;33.40;;;;;;;3.18;100.00;100808.22;4931104;29;20067;-88
2022/04/19 01:03:01;;;;;;;36.83;34.08;;;;;;;3.18;100.00;100799.53;4925542;29;20052;-89
2022/04/19 01:05:33;;;;;;;34.47;31.92;;;;;;;3.17;100.00;100801.31;4927326;29;20139;-89
2022/04/19 01:08:00;;;;;;;;;;;;;;;3.12;100.00;100805.41;4931879;29;20055;-89
2022/04/19 01:10:31;;;;;;;34.25;31.38;;;;;;;3.11;100.00;100809.00;4926205;29;19923;-89
2022/04/19 01:15:46;;;;;;;43.33;39.00;;;;;;;3.15;100.00;100805.09;4930229;29;20062;-89
2022/04/19 01:18:13;;;;;;;44.20;40.35;;;;;;;3.12;100.00;100813.28;4924042;29;20490;-89
2022/04/19 01:20:42;;;;;;;35.58;32.42;;;;;;;3.06;100.00;100808.66;4922191;29;20060;-89
2022/04/19 01:23:13;;;;;;;34.47;31.55;;;;;;;3.09;100.00;100803.09;4934109;29;20058;-89
2022/04/19 01:25:40;;;;;;;34.30;31.38;;;;;;;3.02;100.00;100810.72;4922280;29;20056;-89
2022/04/19 01:28:08;;;;;;;39.25;35.95;;;;;;;3.17;100.00;100809.19;4928327;29;20051;-89
2022/04/19 01:30:35;;;;;;;36.47;33.38;;;;;;;3.51;100.00;100810.19;4926839;29;20407;-89
2022/04/19 01:33:02;;;;;;;39.17;36.08;;;;;;;3.41;100.00;100810.31;4924908;29;20052;-88
2022/04/19 01:35:30;;;;;;;40.30;37.00;;;;;;;3.52;100.00;100811.84;4918926;29;20079;-89
2022/04/19 01:37:57;;;;;;;39.10;35.95;;;;;;;3.48;100.00;100807.88;4929003;29;20054;-89
2022/04/19 01:40:29;;;;;;;38.47;35.58;;;;;;;3.65;100.00;100807.78;4930480;29;20052;-89
2022/04/19 01:42:58;;;;;;;;;;;;;;;3.67;100.00;100808.47;4928859;29;20058;-89
2022/04/19 01:45:32;;;;;;;34.85;31.90;;;;;;;3.24;100.00;100805.94;4927191;29;19922;-89
2022/04/19 01:48:00;;;;;;;40.17;36.42;;;;;;;3.64;100.00;100805.31;4922340;29;20062;-89
2022/04/19 01:50:29;;;;;;;40.35;36.55;;;;;;;3.49;100.00;100807.72;4929740;29;20078;-89
2022/04/19 01:52:57;;;;;;;39.03;35.33;;;;;;;3.58;100.00;100809.41;4928551;29;20437;-89
2022/04/19 01:55:26;;;;;;;40.47;36.55;;;;;;;3.71;100.00;100811.59;4923863;29;20511;-90
2022/04/19 01:57:59;;;;;;;35.95;32.63;;;;;;;3.55;100.00;100804.47;4926228;29;20051;-89
2022/04/19 02:02:55;;;;;;;39.13;35.30;;;;;;;3.63;100.00;100809.75;4970250;28;20500;-89
2022/04/19 02:05:22;;;;;;;38.03;34.63;;;;;;;3.62;100.00;100802.84;4974318;28;20570;-89
2022/04/19 02:07:49;;;;;;;41.70;38.35;;;;;;;3.50;100.00;100805.91;4974068;28;20046;-89
2022/04/19 02:10:18;;;;;;;39.28;35.75;;;;;;;3.44;100.00;100802.94;4974466;28;20591;-89
2022/04/19 02:12:47;;;;;;;36.53;33.53;;;;;;;3.06;100.00;100804.22;4973863;28;20047;-89
2022/04/19 02:15:15;;;;;;;37.25;33.92;;;;;;;3.44;100.00;100802.94;4973701;28;20450;-89
2022/04/19 02:17:47;;;;;;;39.00;35.67;;;;;;;3.57;100.00;100805.13;4973884;28;20050;-89
2022/04/19 02:20:16;;;;;;;39.10;35.63;;;;;;;3.70;100.00;100802.06;4972575;28;20502;-90
2022/04/19 02:22:43;;;;;;;36.80;33.67;;;;;;;3.54;100.00;100808.09;4973918;28;20051;-89
2022/04/19 02:25:11;;;;;;;39.67;36.38;;;;;;;3.65;100.00;100797.28;4973978;28;20053;-89
2022/04/19 02:27:39;;;;;;;37.72;34.47;;;;;;;3.43;100.00;100809.16;4974278;28;20082;-88
2022/04/19 02:30:13;;;;;;;36.28;33.17;;;;;;;3.74;100.00;100807.81;4974247;28;20038;-89
2022/04/19 02:32:40;;;;;;;37.40;34.47;;;;;;;3.40;100.00;100801.59;4974009;28;20165;-90
2022/04/19 02:35:07;;;;;;;39.08;35.78;;;;;;;3.67;100.00;100803.19;4973535;28;20059;-90
2022/04/19 02:37:34;;;;;;;37.90;34.70;;;;;;;3.72;100.00;100802.72;4973470;28;20554;-89
2022/04/19 02:40:01;;;;;;;38.00;34.88;;;;;;;3.54;100.00;100808.09;4973168;28;20050;-89
2022/04/19 02:42:28;;;;;;;39.70;36.50;;;;;;;3.75;100.00;100809.44;4972804;28;20054;-89
2022/04/19 02:44:56;;;;;;;39.80;36.75;;;;;;;3.57;100.00;100805.13;4974526;28;20046;-89
2022/04/19 02:47:24;;;;;;;40.20;36.72;;;;;;;3.76;100.00;100809.31;4973890;28;20465;-89
2022/04/19 02:49:51;;;;;;;43.63;39.95;;;;;;;3.92;100.00;100812.97;4973790;28;20051;-89
2022/04/19 02:52:18;;;;;;;36.85;33.72;;;;;;;3.78;100.00;100812.63;4973837;28;20054;-89
2022/04/19 02:54:45;;;;;;;37.30;34.35;;;;;;;3.84;100.00;100819.00;4973707;28;20051;-89
2022/04/19 02:57:11;;;;;;;41.47;38.28;;;;;;;3.86;100.00;100820.50;4973946;28;20047;-89
2022/04/19 02:59:38;;;;;;;37.30;34.25;;;;;;;3.75;100.00;100814.72;4969762;28;20129;-89
2022/04/19 03:02:06;;;;;;;38.92;35.20;;;;;;;3.44;100.00;100818.69;5000186;28;20058;-89
2022/04/19 03:04:34;;;;;;;38.78;35.40;;;;;;;3.47;100.00;100820.19;5012455;28;20053;-89
2022/04/19 03:07:01;;;;;;;37.30;34.10;;;;;;;3.78;100.00;100822.28;5012337;28;20562;-90
2022/04/19 03:09:28;;;;;;;38.05;34.65;;;;;;;3.68;100.00;100832.91;5012455;28;20046;-89
2022/04/19 03:11:55;;;;;;;38.95;35.50;;;;;;;3.99;100.00;100833.19;5012040;28;20064;-89
2022/04/19 03:14:22;;;;;;;42.67;38.80;;;;;;;3.87;100.00;100839.72;5010585;28;20054;-89
2022/04/19 03:16:49;;;;;;;41.45;37.60;;;;;;;3.65;100.00;100827.97;5012893;28;20058;-89
2022/04/19 03:19:16;;;;;;;40.03;36.85;;;;;;;3.63;100.00;100836.03;5011913;28;20667;-89
2022/04/19 03:21:44;;;;;;;40.55;37.05;;;;;;;3.79;100.00;100839.69;5012016;28;20054;-89
2022/04/19 03:29:40;;;;;;;43.17;39.63;;;;;;;4.06;100.00;100857.03;5011619;28;20085;-89
2022/04/19 03:32:09;;;;;;;41.85;38.63;;;;;;;4.09;100.00;100864.59;5012664;28;20042;-89
2022/04/19 03:34:36;;;;;;;40.30;36.70;;;;;;;4.11;100.00;100870.50;5011669;28;20049;-90
2022/04/19 03:37:04;;;;;;;40.88;37.10;;;;;;;3.71;100.00;100861.50;5011959;28;20038;-89
2022/04/19 03:39:31;;;;;;;38.65;35.53;;;;;;;3.55;100.00;100864.88;5012358;28;20049;-90
2022/04/19 03:41:58;;;;;;;36.38;33.20;;;;;;;3.76;100.00;100864.47;5011763;28;20495;-89
2022/04/19 03:44:26;;;;;;;38.72;34.78;;;;;;;4.00;100.00;100865.56;5011980;28;20046;-89
2022/04/19 03:47:09;;;;;;;36.58;33.53;;;;;;;4.03;100.00;100855.56;5008042;28;20057;-89
2022/04/19 03:49:36;;;;;;;36.35;33.35;;;;;;;4.36;100.00;100864.34;4999205;28;20515;-89
2022/04/19 03:52:05;;;;;;;37.47;34.40;;;;;;;4.38;100.00;100860.72;5013118;28;20048;-89
2022/04/19 03:54:34;;;;;;;38.80;35.90;;;;;;;4.23;100.00;100861.34;5015750;28;20399;-89
2022/04/19 03:57:03;;;;;;;38.00;35.03;;;;;;;4.25;100.00;100866.44;5015449;28;20054;-89
2022/04/19 03:59:30;;;;;;;46.58;42.53;;;;;;;3.60;100.00;100864.38;5015743;28;20095;-89
2022/04/19 04:01:57;;;;;;;55.15;49.70;;;;;;;3.65;100.00;100876.06;5016026;28;20069;-89
2022/04/19 04:04:25;;;;;;;51.75;46.60;;;;;;;3.61;100.00;100876.56;5016526;28;20046;-89
2022/04/19 04:06:51;;;;;;;53.85;48.50;;;;;;;4.02;100.00;100881.97;5015526;28;20041;-89
2022/04/19 04:09:20;;;;;;;54.00;48.58;;;;;;;4.33;100.00;100888.34;5015670;28;20046;-89
2022/04/19 04:11:46;;;;;;;52.67;47.08;;;;;;;4.28;100.00;100885.34;5009610;28;20112;-89
2022/04/19 04:14:13;;;;;;;36.42;33.50;;;;;;;4.30;100.00;100882.56;5015062;28;20430;-89
2022/04/19 04:16:40;;;;;;;33.88;31.27;;;;;;;4.35;100.00;100888.97;5015868;28;20073;-89
2022/04/19 04:19:07;;;;;;;35.70;32.80;;;;;;;4.39;100.00;100892.13;5015023;28;20049;-89
2022/04/19 04:21:34;;;;;;;36.08;33.42;;;;;;;4.43;100.00;100890.00;5015050;28;20054;-89
2022/04/19 04:24:00;;;;;;;34.40;31.77;;;;;;;4.54;100.00;100885.25;5015897;28;20430;-89
2022/04/19 04:26:29;;;;;;;33.75;31.17;;;;;;;4.44;100.00;100884.56;5015397;28;20050;-89
2022/04/19 04:28:55;;;;;;;35.80;32.80;;;;;;;4.52;100.00;100889.84;5015084;28;20050;-89
2022/04/19 04:31:22;;;;;;;39.58;36.00;;;;;;;4.45;100.00;100891.47;5014939;28;20046;-89
2022/04/19 04:33:49;;;;;;;37.75;34.70;;;;;;;4.45;100.00;100893.25;5015114;28;20522;-89
2022/04/19 04:36:16;;;;;;;36.92;34.13;;;;;;;4.39;100.00;100894.75;5016059;28;20049;-89
2022/04/19 04:38:43;;;;;;;34.80;32.10;;;;;;;4.44;100.00;100900.34;5015353;28;20056;-90
2022/04/19 04:41:10;;;;;;;32.53;30.35;;;;;;;4.57;100.00;100898.09;5014737;28;20050;-89
2022/04/19 04:43:39;;;;;;;35.78;32.97;;;;;;;4.50;100.00;100901.50;5014840;28;20057;-89
2022/04/19 04:51:34;;;;;;;35.30;32.83;;;;;;;4.55;100.00;100907.94;5014198;28;20111;-89
2022/04/19 04:54:01;;;;;;;35.83;33.42;;;;;;;4.63;100.00;100911.56;5015381;28;20140;-89
2022/04/19 04:56:28;;;;;;;31.60;29.30;;;;;;;4.62;100.00;100909.91;5015251;28;20054;-89
2022/04/19 04:58:56;;;;;;;34.40;31.98;;;;;;;4.43;100.00;100911.03;5014842;28;20046;-89
2022/04/19 05:01:23;;;;;;;35.22;32.17;;;;;;;4.88;100.00;100915.88;5014090;28;20099;-89
2022/04/19 05:03:50;;;;;;;33.83;31.35;;;;;;;4.95;100.00;100918.66;5013417;28;20491;-90
2022/04/19 05:06:17;;;;;;;35.63;33.08;;;;;;;4.80;100.00;100915.84;5015379;28;20042;-89
2022/04/19 05:08:43;;;;;;;36.92;34.25;;;;;;;4.84;100.00;100911.91;5014262;28;20056;-89
2022/04/19 05:11:10;;;;;;;33.67;31.27;;;;;;;4.84;100.00;100919.81;5014555;28;20057;-89
2022/04/19 05:13:37;;;;;;;36.25;33.58;;;;;;;4.95;100.00;100927.38;5014754;28;20049;-89
2022/04/19 05:16:05;;;;;;;37.45;34.53;;;;;;;5.38;100.00;100920.13;5014432;28;20050;-89
2022/04/19 05:18:32;;;;;;;32.72;30.42;;;;;;;5.09;100.00;100927.72;5014918;28;20419;-88
2022/04/19 05:20:59;;;;;;;32.80;30.42;;;;;;;5.18;100.00;100924.09;5014277;28;20458;-89
2022/04/19 05:23:26;;;;;;;40.25;36.78;;;;;;;5.21;100.00;100919.31;5014073;28;20060;-89
2022/04/19 05:25:54;;;;;;;37.63;34.53;;;;;;;5.35;100.00;100920.44;5014019;28;20041;-90
2022/04/19 05:28:21;;;;;;;32.78;30.30;;;;;;;5.39;100.00;100924.41;5013215;28;20539;-89
2022/04/19 05:30:47;;;;;;;36.47;33.70;;;;;;;5.54;100.00;100927.19;5013222;28;20046;-89
2022/04/19 05:33:16;;;;;;;35.42;32.83;;;;;;;5.49;100.00;100924.22;5014772;28;20053;-89
2022/04/19 05:35:42;;;;;;;33.42;31.13;;;;;;;5.46;100.00;100932.47;5014157;28;20481;-89
2022/04/19 05:38:09;;;;;;;33.90;31.70;;;;;;;5.43;100.00;100933.63;5013959;28;20061;-89
2022/04/19 05:40:36;;;;;;;39.35;35.75;;;;;;;5.51;100.00;100927.53;5014079;28;20509;-89
2022/04/19 05:43:03;;;;;;;34.22;31.73;;;;;;;5.43;100.00;100941.53;5013930;28;20112;-89
2022/04/19 05:45:29;;;;;;;35.97;33.00;;;;;;;5.74;100.00;100932.91;5013752;28;20050;-89
2022/04/19 05:47:56;;;;;;;37.65;34.85;;;;;;;6.22;100.00;100943.47;5014593;28;20123;-89
2022/04/19 05:50:25;;;;;;;38.70;35.38;;;;;;;5.59;100.00;100940.66;5013569;28;20050;-89
2022/04/19 05:52:52;;;;;;;37.95;34.63;;;;;;;5.83;100.00;100938.97;5013714;28;20056;-89
2022/04/19 05:55:19;;;;;;;37.00;34.30;;;;;;;5.96;100.00;100940.13;5013306;28;20064;-89
2022/04/19 05:57:46;;;;;;;36.55;33.85;;;;;;;6.03;100.00;100936.81;5013090;28;20049;-89
2022/04/19 06:00:13;;;;;;;44.17;40.47;;;;;;;5.99;100.00;100935.47;5013819;28;20072;-90
2022/04/19 06:05:26;;;;;;;38.75;35.67;;;;;;;6.10;100.00;100937.75;5013497;28;20049;-89
2022/04/19 06:07:54;;;;;;;36.45;33.90;;;;;;;6.34;100.00;100942.09;5013364;28;20042;-88
2022/04/19 06:10:22;;;;;;;36.95;34.45;;;;;;;6.36;100.00;100945.41;5013350;28;20581;-90
2022/04/19 06:12:49;;;;;;;38.60;36.10;;;;;;;6.34;100.00;100944.75;5013132;28;20042;-89
2022/04/19 06:15:15;;;;;;;36.85;34.25;;;;;;;6.34;100.00;100950.84;5013392;28;20423;-89
2022/04/19 06:17:42;;;;;;;34.50;31.98;;;;;;;6.33;100.00;100951.84;5013831;28;20050;-89
2022/04/19 06:20:10;;;;;;;37.72;35.03;;;;;;;6.57;100.00;100947.44;5013259;28;20042;-89
2022/04/19 06:22:38;;;;;;;35.92;33.40;;;;;;;6.30;100.00;100951.38;5013308;28;20089;-89
2022/04/19 06:25:06;;;;;;;31.52;29.58;;;;;;;6.33;100.00;100948.38;5012490;28;20060;-89
2022/04/19 06:27:33;;;;;;;36.15;33.72;;;;;;;6.38;100.00;100944.25;5012718;28;20077;-88
2022/04/19 06:30:00;;;;;;;35.60;33.40;;;;;;;6.09;100.00;100942.22;5012904;28;20045;-89
2022/04/19 06:32:26;;;;;;;31.30;29.58;;;;;;;6.23;100.00;100955.66;5013189;28;20458;-89
2022/04/19 06:34:54;;;;;;;34.00;31.85;;;;;;;6.70;100.00;100960.88;5012773;28;20069;-89
2022/04/19 06:37:22;;;;;;;33.60;31.80;;;;;;;6.48;100.00;100948.47;5012919;28;20115;-89
2022/04/19 06:39:50;;;;;;;29.85;28.15;;;;;;;6.22;100.00;100946.13;5012646;28;20050;-89
2022/04/19 06:42:17;;;;;;;30.88;29.17;;;;;;;6.14;100.00;100950.44;5012756;28;20054;-89
2022/04/19 06:44:44;;;;;;;31.35;29.55;;;;;;;6.48;100.00;100959.03;5012643;28;20474;-89
2022/04/19 06:47:11;;;;;;;33.42;31.42;;;;;;;6.76;100.00;100960.19;5012781;28;20100;-89
2022/04/19 06:49:38;;;;;;;31.55;29.73;;;;;;;6.58;100.00;100960.44;5012569;28;20503;-89
2022/04/19 06:52:06;;;;;;;32.45;30.55;;;;;;;5.89;100.00;100965.47;5012546;28;20115;-89
2022/04/19 06:54:33;;;;;;;32.40;30.50;;;;;;;6.39;100.00;100960.88;5012431;28;20050;-89
2022/04/19 06:57:01;;;;;;;30.55;28.73;;;;;;;6.78;100.00;100960.84;5012609;28;20069;-89
2022/04/19 06:59:28;;;;;;;32.30;30.50;;;;;;;6.59;100.00;100962.06;5012171;28;20057;-89
2022/04/19 07:01:56;;;;;;;32.90;31.15;;;;;;;6.38;100.00;100964.50;5011864;28;20112;-89
2022/04/19 07:04:22;;;;;;;32.75;30.92;;;;;;;6.86;100.00;100967.84;5012203;28;20065;-89
2022/04/19 07:06:49;;;;;;;31.80;29.88;;;;;;;6.52;100.00;100962.97;5012344;28;20054;-90
2022/04/19 07:09:17;;;;;;;31.15;29.35;;;;;;;5.99;100.00;100964.50;5012272;28;20085;-89
2022/04/19 07:11:44;;;;;;;33.35;31.35;;;;;;;6.50;100.00;100978.13;5010481;28;20557;-89
2022/04/19 07:14:12;;;;;;;31.33;29.63;;;;;;;5.83;100.00;100960.06;5011170;28;20053;-89
2022/04/19 07:16:39;;;;;;;34.58;32.33;;;;;;;5.71;100.00;100963.03;5011753;28;20041;-89
2022/04/19 07:19:06;;;;;;;35.35;33.00;;;;;;;6.01;100.00;100967.78;5012230;28;20049;-89
2022/04/19 07:27:09;;;;;;;34.95;32.75;;;;;;;6.51;100.00;100980.63;5008370;28;20537;-89
2022/04/19 07:29:37;;;;;;;30.55;28.85;;;;;;;5.78;100.00;100983.47;5012047;28;20042;-89
2022/04/19 07:32:04;;;;;;;31.13;29.23;;;;;;;6.18;100.00;100972.84;5010726;28;20082;-89
2022/04/19 07:34:31;;;;;;;35.03;32.70;;;;;;;5.88;100.00;100974.38;5011829;28;20046;-89
2022/04/19 07:36:58;;;;;;;33.83;31.58;;;;;;;6.49;100.00;100985.22;5012091;28;20049;-89
2022/04/19 07:39:26;;;;;;;34.00;31.80;;;;;;;6.03;100.00;100981.63;5012673;28;20046;-89
2022/04/19 07:41:54;;;;;;;30.95;29.15;;;;;;;5.74;100.00;100988.25;5011355;28;20059;-89
2022/04/19 07:44:20;;;;;;;31.83;29.92;;;;;;;6.08;100.00;100993.31;5012028;28;20045;-89
2022/04/19 07:46:50;;;;;;;30.67;28.88;;;;;;;6.44;100.00;100982.28;5011489;28;20149;-89
2022/04/19 07:49:17;;;;;;;34.75;32.58;;;;;;;6.47;100.00;100989.84;5011831;28;20088;-90
2022/04/19 07:51:44;;;;;;;33.60;31.50;;;;;;;5.82;100.00;100982.97;5011456;28;20133;-89
2022/04/19 07:54:11;;;;;;;29.90;28.10;;;;;;;6.05;100.00;100983.13;5011780;28;20084;-89
2022/04/19 07:56:37;;;;;;;32.17;30.10;;;;;;;6.08;100.00;100980.13;5012883;28;20061;-90
2022/04/19 07:59:04;;;;;;;32.53;30.63;;;;;;;6.50;100.00;100978.94;5011641;28;20053;-90
2022/04/19 08:01:31;;;;;;;31.50;29.67;;;;;;;6.33;100.00;100987.97;5011348;28;20052;-90
2022/04/19 08:04:00;;;;;;;32.35;30.02;;;;;;;7.48;100.00;100980.94;5011840;28;20054;-90
2022/04/19 08:06:27;;;;;;;34.13;32.03;;;;;;;6.23;100.00;100988.13;5011260;28;20108;-89
2022/04/19 08:08:54;;;;;;;30.58;28.75;;;;;;;6.28;100.00;100974.44;5010896;28;20565;-89
2022/04/19 08:11:21;;;;;;;31.40;29.48;;;;;;;5.86;100.00;100978.19;5011691;28;20053;-89
2022/04/19 08:13:48;;;;;;;32.67;30.80;;;;;;;6.45;100.00;100988.41;5011149;28;20042;-89
2022/04/19 08:16:15;;;;;;;33.95;31.95;;;;;;;6.69;100.00;100985.63;5007187;28;20045;-89
2022/04/19 08:18:41;;;;;;;31.58;29.67;;;;;;;6.76;100.00;100985.75;5011652;28;20108;-89
2022/04/19 08:21:11;;;;;;;34.67;32.47;;;;;;;6.82;100.00;100988.50;5011678;28;20073;-89
2022/04/19 08:23:38;;;;;;;34.15;32.05;;;;;;;7.39;100.00;100982.00;5011255;28;20481;-90
2022/04/19 08:26:05;;;;;;;30.67;29.08;;;;;;;6.80;100.00;100979.94;5011318;28;20049;-89
2022/04/19 08:28:32;;;;;;;35.17;33.03;;;;;;;6.48;100.00;100983.59;5011355;28;20069;-90
2022/04/19 08:30:59;;;;;;;33.53;31.52;;;;;;;6.79;100.00;100974.84;5011186;28;20503;-89
2022/04/19 08:33:26;;;;;;;31.83;29.92;;;;;;;6.69;100.00;100974.22;5011864;28;20046;-90
2022/04/19 08:35:53;;;;;;;35.75;33.65;;;;;;;7.26;100.00;100977.31;5011167;28;20625;-89
2022/04/19 08:38:22;;;;;;;33.47;31.48;;;;;;;7.29;100.00;100969.03;5011369;28;20058;-89
2022/04/19 08:40:49;;;;;;;33.15;31.00;;;;;;;7.77;100.00;100974.84;5015253;28;20060;-89
2022/04/19 08:43:16;;;;;;;30.67;28.88;;;;;;;7.86;100.00;100962.34;5015279;28;20108;-90
2022/04/19 08:45:44;;;;;;;32.47;30.52;;;;;;;7.13;100.00;100974.44;5014740;28;20523;-90
2022/04/19 08:48:13;;;;;;;32.50;30.60;;;;;;;7.75;100.00;100973.41;5015067;28;20046;-89
2022/04/19 08:50:41;;;;;;;32.60;30.65;;;;;;;7.28;100.00;100972.66;5014627;28;20109;-89
2022/04/19 08:58:39;;;;;;;31.75;30.00;;;;;;;8.21;100.00;100965.28;5010720;28;20053;-89
2022/04/19 09:01:06;;;;;;;31.98;30.27;;;;;;;8.19;100.00;100962.00;5014540;28;20108;-89
2022/04/19 09:03:33;;;;;;;34.03;32.22;;;;;;;8.06;100.00;100962.66;5015388;28;20049;-90
2022/04/19 09:06:01;;;;;;;31.92;30.10;;;;;;;7.70;100.00;100962.53;5014926;28;20053;-89
2022/04/19 09:08:27;;;;;;;33.72;31.88;;;;;;;7.41;100.00;100965.94;5014573;28;20065;-89
2022/04/19 09:11:07;;;;;;;30.60;28.67;;;;;;;8.15;100.00;100964.19;5010193;28;20534;-89
2022/04/19 09:13:33;;;;;;;28.73;27.02;;;;;;;7.41;100.00;100958.84;5014364;28;20056;-89
2022/04/19 09:16:05;;;;;;;28.25;26.75;;;;;;;6.70;100.00;100960.88;5014718;28;20100;-89
2022/04/19 09:18:35;;;;;;;29.20;27.70;;;;;;;7.02;100.00;100964.28;5015326;28;20140;-90
2022/04/19 09:21:04;;;;;;;29.67;28.15;;;;;;;7.89;100.00;100953.25;5014334;28;20042;-89
2022/04/19 09:23:32;;;;;;;28.80;27.30;;;;;;;7.86;100.00;100957.06;5014288;28;20049;-90
2022/04/19 09:26:00;;;;;;;30.60;29.00;;;;;;;8.26;100.00;100962.91;5013194;28;20046;-89
2022/04/19 09:28:29;;;;;;;33.35;31.45;;;;;;;8.17;100.00;100951.59;5014001;28;20049;-89
2022/04/19 09:30:58;;;;;;;29.38;27.77;;;;;;;8.65;100.00;100952.00;5014162;28;20058;-89
2022/04/19 09:33:26;;;;;;;29.70;28.10;;;;;;;7.29;100.00;100947.91;5014509;28;20056;-90
2022/04/19 09:35:55;;;;;;;30.60;29.00;;;;;;;7.53;100.00;100954.78;5013544;28;20053;-89
2022/04/19 09:38:35;;;;;;;31.15;29.35;;;;;;;8.11;100.00;100960.28;5013596;28;20490;-90
2022/04/19 09:41:03;;;;;;;30.58;28.95;;;;;;;7.47;100.00;100958.13;5005347;28;20476;-89
2022/04/19 09:43:32;;;;;;;30.88;29.05;;;;;;;8.00;100.00;100955.44;5014637;28;20462;-89
2022/04/19 09:46:03;;;;;;;29.40;27.90;;;;;;;7.47;100.00;100962.59;5014216;28;20534;-89
2022/04/19 09:48:31;;;;;;;29.45;27.75;;;;;;;7.24;100.00;100960.81;5014733;28;20046;-90
2022/04/19 09:51:02;;;;;;;32.42;30.45;;;;;;;7.29;100.00;100958.47;5013374;28;20050;-89
2022/04/19 09:53:30;;;;;;;32.33;30.45;;;;;;;7.88;100.00;100962.19;5013351;28;20100;-89
2022/04/19 09:55:59;;;;;;;30.20;28.60;;;;;;;7.77;100.00;100969.56;5013692;28;20109;-90
2022/04/19 09:58:27;;;;;;;32.50;30.70;;;;;;;7.48;100.00;100965.06;5013903;28;20046;-89
2022/04/19 10:00:57;;;;;;;33.45;31.65;;;;;;;7.63;100.00;100965.09;5013179;28;20054;-89
2022/04/19 10:08:54;;;;;;;32.40;30.73;;;;;;;8.36;100.00;100958.16;4983989;28;20057;-89
2022/04/19 10:11:21;;;;;;;31.20;29.50;;;;;;;7.86;100.00;100953.63;5013610;28;20049;-89
2022/04/19 10:13:48;;;;;;;33.60;31.80;;;;;;;7.61;100.00;100959.16;5013094;28;20054;-90
2022/04/19 10:16:17;;;;;;;31.65;29.85;;;;;;;8.54;100.00;100962.25;5008835;28;20050;-89
2022/04/19 10:18:45;;;;;;;30.70;29.10;;;;;;;8.33;100.00;100958.50;5013784;28;20046;-89
2022/04/19 10:21:19;;;;;;;29.13;27.73;;;;;;;8.39;100.00;100960.44;5013607;28;20470;-89
2022/04/19 10:23:46;;;;;;;31.52;29.85;;;;;;;8.35;100.00;100955.66;5013801;28;20499;-88
2022/04/19 10:26:21;;;;;;;33.30;31.60;;;;;;;8.24;100.00;100951.69;5012437;28;20061;-89
2022/04/19 10:28:49;;;;;;;33.75;31.98;;;;;;;9.00;100.00;100956.63;5012620;28;20495;-89
2022/04/19 10:31:27;;;;;;;33.90;32.00;;;;;;;8.69;100.00;100944.50;5008899;28;20053;-89
2022/04/19 10:33:54;;;;;;;34.65;32.47;;;;;;;8.36;100.00;100952.84;4994859;28;20051;-89
2022/04/19 10:36:24;;;;;;;32.45;30.55;;;;;;;8.78;100.00;100955.78;5013358;28;20080;-90
2022/04/19 10:39:26;;;;;;;32.50;30.80;;;;;;;8.30;100.00;100950.13;5013333;28;20045;-89
2022/04/19 10:41:56;;;;;;;32.80;30.95;;;;;;;8.75;100.00;100954.34;5012442;28;20050;-89
2022/04/19 10:44:31;;;;;;;32.95;31.05;;;;;;;8.94;100.00;100950.25;5013097;28;20053;-89
2022/04/19 10:47:18;;;;;;;35.15;33.05;;;;;;;10.04;100.00;100944.28;5008674;28;20046;-89
2022/04/19 10:50:02;;;;;;;35.25;33.35;;;;;;;9.85;100.00;100940.53;5001922;28;20042;-90
2022/04/19 10:53:03;;;;;;;31.65;29.85;;;;;;;9.25;100.00;100951.72;5006614;28;20046;-90
2022/04/19 10:56:01;;;;;;;32.88;31.05;;;;;;;8.89;100.00;100948.16;5139982;27;20852;-89
2022/04/19 10:58:39;;;;;;;35.28;33.00;;;;;;;9.27;100.00;100958.47;5119509;27;20044;-88
2022/04/19 11:01:07;;;;;;;33.85;31.88;;;;;;;8.46;100.00;100960.53;5119858;27;20051;-88
2022/04/19 11:03:47;;;;;;;35.13;33.13;;;;;;;8.75;100.00;100954.34;5112185;27;20044;-88
2022/04/19 11:06:32;;;;;;;35.28;33.13;;;;;;;9.14;100.00;100958.38;5118550;28;20053;-88
2022/04/19 11:09:21;;;;;;;34.38;32.45;;;;;;;9.17;100.00;100956.16;5120450;28;20055;-88
2022/04/19 11:11:51;;;;;;;34.60;32.60;;;;;;;8.93;100.00;100951.25;5117573;28;20047;-89
2022/04/19 11:14:23;;;;;;;36.00;33.92;;;;;;;8.70;100.00;100951.41;5120542;28;20044;-89
2022/04/19 11:16:51;;;;;;;33.80;32.00;;;;;;;9.11;100.00;100956.94;5120808;28;20051;-88
2022/04/19 11:19:21;;;;;;;36.55;34.45;;;;;;;9.41;100.00;100946.16;5111897;28;20136;-87
2022/04/19 11:21:54;;;;;;;35.92;33.83;;;;;;;8.93;100.00;100944.13;5119865;28;20043;-88
2022/04/19 11:24:57;;;;;;;34.33;32.33;;;;;;;9.94;100.00;100948.34;5115947;28;20470;-87
2022/04/19 11:27:25;;;;;;;36.25;34.35;;;;;;;9.47;100.00;100950.69;5118163;28;20043;-88
2022/04/19 11:29:53;;;;;;;33.25;31.45;;;;;;;9.06;100.00;100956.66;5120658;28;20062;-89
2022/04/19 11:32:23;;;;;;;31.40;29.55;;;;;;;9.55;100.00;100947.88;5114159;28;20496;-90
2022/04/19 11:35:01;;;;;;;31.83;30.13;;;;;;;9.14;100.00;100951.25;5112501;28;20052;-91
2022/04/19 11:37:30;;;;;;;31.20;29.50;;;;;;;9.57;100.00;100945.06;5118678;27;20604;-90
2022/04/19 11:48:27;;;;;;;;;;;;;;;9.26;100.00;100942.75;5118151;28;20424;-88
2022/04/19 11:50:54;;;;;;;32.70;31.00;;;;;;;9.63;100.00;100938.97;5120645;28;19923;-88
2022/04/19 11:53:25;;;;;;;34.63;32.72;;;;;;;9.48;100.00;100932.97;5114433;28;20567;-89
2022/04/19 11:55:52;;;;;;;33.65;31.50;;;;;;;9.60;100.00;100937.53;5119178;28;20044;-89
2022/04/19 11:58:23;;;;;;;30.50;28.80;;;;;;;9.52;100.00;100931.53;5120576;28;20047;-88
2022/04/19 12:01:01;;;;;;;32.95;30.83;;;;;;;10.21;100.00;100931.53;5117808;27;20044;-89